Time;durP1;ratioP1;P1;durP2;ratioP2;P2;SDS_P1;SDS_P2;PMS_P1;PMS_P2;Temp;Humidity;BMP_temperature;BMP_pressure;BME280_temperature;BME280_humidity;BME280_pressure;Samples;Min_cycle;Max_cycle;Signal;HPM_P1;HPM_P2
2023/08/08 00:00:11;;;;;;;10.80;5.97;;;;;;;;;;5070457;28;20099;-74
2023/08/08 00:02:36;;;;;;;11.38;5.93;;;;;;;;;;5068895;28;20376;-74
2023/08/08 00:05:01;;;;;;;8.47;5.97;;;;;;;;;;5069004;28;20012;-74
2023/08/08 00:07:30;;;;;;;6.17;5.33;;;;;;;;;;5068866;28;20451;-74
2023/08/08 00:09:55;;;;;;;;;;;;;;;;;;5070810;28;20474;-75
2023/08/08 00:12:20;;;;;;;12.75;7.72;;;;;;;;;;5068545;28;19954;-74
2023/08/08 00:14:45;;;;;;;10.07;7.13;;;;;;;;;;5070691;28;20031;-74
2023/08/08 00:17:10;;;;;;;18.35;6.63;;;;;;;;;;5068764;28;20033;-74
2023/08/08 00:19:35;;;;;;;10.13;6.37;;;;;;;;;;5068507;28;20105;-73
2023/08/08 00:22:00;;;;;;;17.40;7.03;;;;;;;;;;5068989;28;20497;-75
2023/08/08 00:24:26;;;;;;;6.45;5.65;;;;;;;;;;5070120;28;20421;-75
2023/08/08 00:26:51;;;;;;;6.13;4.93;;;;;;;;;;5068465;28;20063;-74
2023/08/08 00:29:16;;;;;;;8.27;5.18;;;;;;;;;;5070170;28;20030;-75
2023/08/08 00:31:41;;;;;;;6.90;4.67;;;;;;;;;;5069048;28;20120;-74
2023/08/08 00:34:06;;;;;;;8.63;4.97;;;;;;;;;;5070018;28;20020;-74
2023/08/08 00:36:31;;;;;;;4.90;4.07;;;;;;;;;;5068659;28;20052;-74
2023/08/08 00:38:56;;;;;;;8.87;4.37;;;;;;;;;;5070058;28;20480;-73
2023/08/08 00:41:22;;;;;;;4.15;3.47;;;;;;;;;;5068413;28;20435;-74
2023/08/08 00:43:47;;;;;;;5.00;4.47;;;;;;;;;;5070223;28;20096;-74
2023/08/08 00:46:12;;;;;;;5.93;5.32;;;;;;;;;;5068245;28;20874;-74
2023/08/08 00:48:37;;;;;;;7.23;5.37;;;;;;;;;;5072578;28;20013;-74
2023/08/08 00:51:03;;;;;;;4.50;4.07;;;;;;;;;;5072344;28;20024;-74
2023/08/08 00:53:31;;;;;;;7.68;5.05;;;;;;;;;;5073727;28;20020;-75
2023/08/08 00:55:56;;;;;;;9.18;4.82;;;;;;;;;;5072188;28;20514;-74
2023/08/08 00:58:21;;;;;;;9.70;4.78;;;;;;;;;;5073620;28;20099;-74
2023/08/08 01:00:46;;;;;;;6.67;4.73;;;;;;;;;;5072023;28;20017;-74
2023/08/08 01:03:11;;;;;;;6.85;4.43;;;;;;;;;;5073021;28;20501;-75
2023/08/08 01:05:41;;;;;;;5.03;4.60;;;;;;;;;;5072209;28;20016;-74
2023/08/08 01:08:07;;;;;;;8.65;5.57;;;;;;;;;;5072416;28;20555;-73
2023/08/08 01:10:38;;;;;;;6.68;5.07;;;;;;;;;;5072827;28;20016;-73
2023/08/08 01:13:05;;;;;;;14.38;7.85;;;;;;;;;;5092002;28;20036;-73
2023/08/08 01:15:35;;;;;;;8.95;7.63;;;;;;;;;;5093349;28;20471;-73
2023/08/08 01:18:01;;;;;;;6.82;5.38;;;;;;;;;;5072322;28;20044;-73
2023/08/08 01:20:26;;;;;;;8.98;6.43;;;;;;;;;;5072743;28;20024;-74
2023/08/08 01:23:06;;;;;;;11.30;8.45;;;;;;;;;;5071952;28;20419;-73
2023/08/08 01:25:31;;;;;;;7.68;6.32;;;;;;;;;;5071340;28;20012;-73
2023/08/08 01:27:57;;;;;;;11.75;7.03;;;;;;;;;;5071731;28;20035;-73
2023/08/08 01:30:22;;;;;;;10.27;8.67;;;;;;;;;;5072966;28;20021;-73
2023/08/08 01:32:47;;;;;;;9.50;7.13;;;;;;;;;;5071515;28;20446;-73
2023/08/08 01:35:12;;;;;;;14.17;7.80;;;;;;;;;;5073033;28;20485;-73
2023/08/08 01:37:43;;;;;;;11.52;9.23;;;;;;;;;;5071612;28;20549;-74
2023/08/08 01:40:10;;;;;;;13.45;7.82;;;;;;;;;;5072562;28;20051;-74
2023/08/08 01:42:35;;;;;;;11.30;7.90;;;;;;;;;;5070009;28;20029;-74
2023/08/08 01:45:00;;;;;;;14.67;8.80;;;;;;;;;;5073079;28;20467;-74
2023/08/08 01:47:25;;;;;;;11.40;7.95;;;;;;;;;;5071054;28;20116;-74
2023/08/08 01:49:51;;;;;;;16.85;8.80;;;;;;;;;;5072488;28;20029;-74
2023/08/08 01:52:16;;;;;;;15.03;9.23;;;;;;;;;;5071163;28;20037;-74
2023/08/08 01:54:42;;;;;;;11.63;9.05;;;;;;;;;;5072841;28;20498;-74
2023/08/08 01:57:07;;;;;;;17.60;8.88;;;;;;;;;;5071433;28;20032;-74
2023/08/08 01:59:32;;;;;;;16.88;9.85;;;;;;;;;;5071333;28;20023;-74
2023/08/08 02:01:57;;;;;;;19.25;10.25;;;;;;;;;;5069272;28;20045;-74
2023/08/08 02:04:22;;;;;;;16.73;9.75;;;;;;;;;;5071972;28;20029;-74
2023/08/08 02:06:48;;;;;;;15.10;10.77;;;;;;;;;;5071268;28;20033;-74
2023/08/08 02:09:15;;;;;;;12.52;8.55;;;;;;;;;;5072067;28;20113;-74
2023/08/08 02:11:40;;;;;;;15.32;9.48;;;;;;;;;;5070866;28;20484;-74
2023/08/08 02:14:05;;;;;;;12.05;8.65;;;;;;;;;;5072471;28;20040;-74
2023/08/08 02:16:31;;;;;;;11.35;8.98;;;;;;;;;;5070274;28;20029;-73
2023/08/08 02:18:56;;;;;;;10.97;8.23;;;;;;;;;;5071696;28;20597;-74
2023/08/08 02:21:21;;;;;;;16.88;10.82;;;;;;;;;;5070554;28;20446;-74
2023/08/08 02:23:46;;;;;;;14.63;9.10;;;;;;;;;;5070493;28;20423;-74
2023/08/08 02:26:11;;;;;;;11.57;9.82;;;;;;;;;;5070535;28;20036;-73
2023/08/08 02:28:37;;;;;;;18.47;9.30;;;;;;;;;;5072188;28;20111;-75
2023/08/08 02:31:02;;;;;;;12.07;9.10;;;;;;;;;;5070281;28;20435;-74
2023/08/08 02:33:27;;;;;;;13.60;9.03;;;;;;;;;;5071753;28;20440;-74
2023/08/08 02:35:52;;;;;;;14.98;10.25;;;;;;;;;;5070600;28;20425;-73
2023/08/08 02:38:17;;;;;;;10.43;8.87;;;;;;;;;;5071311;28;20016;-74
2023/08/08 02:40:42;;;;;;;20.65;9.27;;;;;;;;;;5070311;28;20456;-73
2023/08/08 02:43:09;;;;;;;14.23;9.43;;;;;;;;;;5070445;28;20031;-73
2023/08/08 02:45:34;;;;;;;15.63;8.65;;;;;;;;;;5071629;28;20012;-71
2023/08/08 02:47:59;;;;;;;13.20;9.32;;;;;;;;;;5069891;28;20048;-71
2023/08/08 02:50:24;;;;;;;11.98;9.77;;;;;;;;;;5071725;28;20017;-72
2023/08/08 02:52:50;;;;;;;13.63;10.50;;;;;;;;;;5068863;28;20249;-72
2023/08/08 02:55:15;;;;;;;12.93;10.13;;;;;;;;;;5070965;28;20016;-73
2023/08/08 02:57:40;;;;;;;17.45;10.13;;;;;;;;;;5070198;28;20052;-75
2023/08/08 03:00:08;;;;;;;22.00;12.27;;;;;;;;;;5071345;28;20054;-73
2023/08/08 03:02:33;;;;;;;14.68;8.55;;;;;;;;;;5069260;28;20458;-73
2023/08/08 03:04:58;;;;;;;24.83;10.17;;;;;;;;;;5071550;28;20017;-73
2023/08/08 03:07:23;;;;;;;17.67;11.60;;;;;;;;;;5069786;28;20399;-74
2023/08/08 03:09:48;;;;;;;22.23;11.53;;;;;;;;;;5069420;28;20969;-73
2023/08/08 03:12:13;;;;;;;15.47;9.40;;;;;;;;;;5069291;28;20509;-74
2023/08/08 03:14:39;;;;;;;18.67;10.38;;;;;;;;;;5071263;28;20418;-74
2023/08/08 03:17:04;;;;;;;21.15;11.40;;;;;;;;;;5069500;28;20054;-74
2023/08/08 03:19:29;;;;;;;26.40;10.77;;;;;;;;;;5070788;28;20044;-74
2023/08/08 03:21:54;;;;;;;12.97;9.23;;;;;;;;;;5069402;28;20028;-73
2023/08/08 03:24:20;;;;;;;14.33;10.17;;;;;;;;;;5070149;28;20513;-72
2023/08/08 03:26:45;;;;;;;15.70;9.60;;;;;;;;;;5069517;28;20493;-73
2023/08/08 03:29:10;;;;;;;13.57;8.77;;;;;;;;;;5070848;28;20024;-73
2023/08/08 03:31:36;;;;;;;12.70;9.20;;;;;;;;;;5068622;28;20082;-73
2023/08/08 03:34:01;;;;;;;13.35;9.77;;;;;;;;;;5071167;28;20051;-73
2023/08/08 03:36:26;;;;;;;16.80;9.32;;;;;;;;;;5069173;28;20037;-73
2023/08/08 03:38:51;;;;;;;16.60;10.77;;;;;;;;;;5070447;28;20016;-73
2023/08/08 03:41:16;;;;;;;39.35;11.30;;;;;;;;;;5069153;28;20042;-73
2023/08/08 03:43:41;;;;;;;13.25;9.35;;;;;;;;;;5070908;28;20032;-74
2023/08/08 03:46:07;;;;;;;17.57;10.23;;;;;;;;;;5068901;28;20036;-74
2023/08/08 03:48:32;;;;;;;17.37;10.13;;;;;;;;;;5070615;28;20431;-75
2023/08/08 03:50:57;;;;;;;14.27;9.00;;;;;;;;;;5069305;28;20442;-73
2023/08/08 03:53:22;;;;;;;18.40;9.75;;;;;;;;;;5070101;28;20017;-73
2023/08/08 03:55:47;;;;;;;35.77;10.57;;;;;;;;;;5069322;28;20025;-73
2023/08/08 03:58:12;;;;;;;19.05;11.40;;;;;;;;;;5070507;28;20025;-73
2023/08/08 04:00:40;;;;;;;25.40;11.00;;;;;;;;;;5070137;28;20395;-73
2023/08/08 04:03:05;;;;;;;13.38;9.32;;;;;;;;;;5069357;28;20525;-73
2023/08/08 04:05:30;;;;;;;16.60;11.20;;;;;;;;;;5070502;28;20016;-73
2023/08/08 04:07:55;;;;;;;23.25;11.70;;;;;;;;;;5087898;28;20487;-70
2023/08/08 04:10:20;;;;;;;28.85;12.32;;;;;;;;;;5090544;28;20016;-72
2023/08/08 04:12:45;;;;;;;16.50;9.40;;;;;;;;;;5071182;28;20036;-73
2023/08/08 04:15:11;;;;;;;16.73;9.95;;;;;;;;;;5069476;28;20016;-64
2023/08/08 04:17:36;;;;;;;17.03;9.70;;;;;;;;;;5068558;28;20541;-63
2023/08/08 04:20:02;;;;;;;14.68;9.57;;;;;;;;;;5067761;28;20052;-61
2023/08/08 04:22:27;;;;;;;10.13;8.18;;;;;;;;;;5069229;28;20029;-60
2023/08/08 04:24:52;;;;;;;8.93;8.00;;;;;;;;;;5074527;28;20575;-63
2023/08/08 04:27:18;;;;;;;15.48;9.45;;;;;;;;;;5072440;28;20032;-64
2023/08/08 04:29:43;;;;;;;13.75;8.50;;;;;;;;;;5072708;28;20024;-60
2023/08/08 04:32:08;;;;;;;13.47;7.87;;;;;;;;;;5069988;28;20040;-60
2023/08/08 04:34:33;;;;;;;11.52;8.55;;;;;;;;;;5074527;28;20028;-60
2023/08/08 04:36:58;;;;;;;18.48;9.30;;;;;;;;;;5060660;28;20432;-60
2023/08/08 04:39:24;;;;;;;13.07;8.37;;;;;;;;;;5053976;28;20031;-60
2023/08/08 04:41:49;;;;;;;11.33;8.70;;;;;;;;;;5052644;28;20095;-60
2023/08/08 04:44:14;;;;;;;21.23;9.20;;;;;;;;;;5053763;28;20108;-60
2023/08/08 04:46:39;;;;;;;15.05;9.98;;;;;;;;;;5052782;28;20033;-60
2023/08/08 04:49:04;;;;;;;14.38;8.95;;;;;;;;;;5059303;28;20463;-60
2023/08/08 04:51:29;;;;;;;24.50;10.70;;;;;;;;;;5071265;28;20041;-60
2023/08/08 04:53:55;;;;;;;15.43;9.77;;;;;;;;;;5073483;28;20467;-60
2023/08/08 04:56:20;;;;;;;14.73;7.60;;;;;;;;;;5069955;28;20044;-60
2023/08/08 04:58:45;;;;;;;18.25;11.88;;;;;;;;;;5071338;28;20782;-60
2023/08/08 05:01:14;;;;;;;13.98;9.40;;;;;;;;;;5070830;28;20071;-60
2023/08/08 05:03:39;;;;;;;22.30;10.18;;;;;;;;;;5071835;28;20562;-60
2023/08/08 05:06:04;;;;;;;12.63;8.35;;;;;;;;;;5067375;28;20119;-59
2023/08/08 05:08:29;;;;;;;17.57;9.87;;;;;;;;;;5071625;28;20385;-60
2023/08/08 05:10:54;;;;;;;12.90;8.52;;;;;;;;;;5070694;28;20759;-60
2023/08/08 05:13:19;;;;;;;20.70;10.63;;;;;;;;;;5070305;28;20028;-60
2023/08/08 05:15:45;;;;;;;33.40;12.60;;;;;;;;;;5070712;28;20024;-59
2023/08/08 05:18:10;;;;;;;16.38;9.35;;;;;;;;;;5072584;28;20034;-59
2023/08/08 05:20:35;;;;;;;17.00;10.17;;;;;;;;;;5071811;28;20028;-60
2023/08/08 05:23:00;;;;;;;25.50;10.70;;;;;;;;;;5069596;28;20408;-60
2023/08/08 05:25:25;;;;;;;19.55;9.38;;;;;;;;;;5072391;28;21135;-60
2023/08/08 05:27:51;;;;;;;16.42;10.00;;;;;;;;;;5070427;28;20036;-60
2023/08/08 05:30:16;;;;;;;16.60;11.05;;;;;;;;;;5071963;28;20035;-60
2023/08/08 05:32:41;;;;;;;17.33;10.90;;;;;;;;;;5070865;28;20661;-61
2023/08/08 05:35:06;;;;;;;14.40;10.03;;;;;;;;;;5070880;28;20032;-60
2023/08/08 05:37:31;;;;;;;27.50;12.60;;;;;;;;;;5070647;28;20513;-60
2023/08/08 05:39:57;;;;;;;20.52;10.73;;;;;;;;;;5072393;28;20459;-60
2023/08/08 05:42:22;;;;;;;21.00;11.73;;;;;;;;;;5070503;28;20062;-60
2023/08/08 05:44:47;;;;;;;17.00;10.90;;;;;;;;;;5072176;28;20446;-61
2023/08/08 05:47:12;;;;;;;21.77;11.13;;;;;;;;;;5070789;28;20791;-61
2023/08/08 05:49:38;;;;;;;17.27;10.67;;;;;;;;;;5071828;28;20027;-60
2023/08/08 05:52:03;;;;;;;19.83;10.82;;;;;;;;;;5070487;28;20270;-61
2023/08/08 05:54:28;;;;;;;18.55;9.02;;;;;;;;;;5072103;28;20518;-60
2023/08/08 05:56:54;;;;;;;18.63;9.53;;;;;;;;;;5070463;28;20033;-60
2023/08/08 05:59:19;;;;;;;19.70;12.10;;;;;;;;;;5071290;28;20024;-60
2023/08/08 06:01:44;;;;;;;12.73;9.73;;;;;;;;;;5070449;28;20040;-60
2023/08/08 06:04:10;;;;;;;15.07;10.35;;;;;;;;;;5072075;28;20423;-64
2023/08/08 06:06:35;;;;;;;21.65;9.68;;;;;;;;;;5070011;28;20118;-59
2023/08/08 06:09:00;;;;;;;18.50;9.60;;;;;;;;;;5070464;28;20019;-58
2023/08/08 06:11:25;;;;;;;16.47;8.10;;;;;;;;;;5069719;28;20453;-58
2023/08/08 06:13:50;;;;;;;17.67;10.80;;;;;;;;;;5068276;28;20546;-58
2023/08/08 06:16:16;;;;;;;16.27;8.97;;;;;;;;;;5070100;28;20056;-58
2023/08/08 06:18:41;;;;;;;17.47;9.87;;;;;;;;;;5071746;28;20451;-58
2023/08/08 06:21:06;;;;;;;21.50;8.93;;;;;;;;;;5052195;28;20861;-58
2023/08/08 06:23:31;;;;;;;20.88;10.55;;;;;;;;;;5051305;28;20028;-58
2023/08/08 06:25:57;;;;;;;16.40;9.85;;;;;;;;;;5049433;28;20049;-58
2023/08/08 06:28:23;;;;;;;15.77;9.45;;;;;;;;;;5050532;28;20031;-58
2023/08/08 06:30:48;;;;;;;16.27;8.75;;;;;;;;;;5050263;28;20570;-58
2023/08/08 06:33:13;;;;;;;14.23;10.35;;;;;;;;;;5056806;28;20033;-59
2023/08/08 06:35:38;;;;;;;17.83;8.68;;;;;;;;;;5071245;28;20377;-59
2023/08/08 06:38:03;;;;;;;16.97;8.97;;;;;;;;;;5069351;28;20056;-59
2023/08/08 06:40:29;;;;;;;13.47;9.70;;;;;;;;;;5070751;28;20504;-59
2023/08/08 06:42:55;;;;;;;18.70;8.50;;;;;;;;;;5051579;28;20510;-59
2023/08/08 06:45:20;;;;;;;16.10;8.20;;;;;;;;;;5070750;28;20033;-59
2023/08/08 06:47:45;;;;;;;12.68;8.38;;;;;;;;;;5069520;28;20033;-59
2023/08/08 06:50:10;;;;;;;15.63;8.20;;;;;;;;;;5068916;28;20071;-58
2023/08/08 06:52:35;;;;;;;15.38;8.18;;;;;;;;;;5051132;28;20108;-61
2023/08/08 06:55:01;;;;;;;15.00;8.13;;;;;;;;;;5049787;28;20074;-59
2023/08/08 06:57:26;;;;;;;15.40;7.50;;;;;;;;;;5048712;28;20036;-59
2023/08/08 06:59:52;;;;;;;14.68;6.95;;;;;;;;;;5049632;28;20017;-59
2023/08/08 07:02:18;;;;;;;16.10;7.90;;;;;;;;;;5049253;28;20065;-58
2023/08/08 07:04:44;;;;;;;12.73;6.72;;;;;;;;;;5050405;28;20021;-59
2023/08/08 07:07:10;;;;;;;22.33;7.07;;;;;;;;;;5068852;28;20039;-59
2023/08/08 07:09:37;;;;;;;13.48;7.15;;;;;;;;;;5070110;28;20466;-58
2023/08/08 07:12:02;;;;;;;13.13;8.02;;;;;;;;;;5069094;28;20047;-59
2023/08/08 07:14:27;;;;;;;25.00;7.60;;;;;;;;;;5070295;28;20120;-59
2023/08/08 07:16:53;;;;;;;10.77;6.17;;;;;;;;;;5068942;28;20095;-59
2023/08/08 07:19:18;;;;;;;10.90;7.05;;;;;;;;;;5070252;28;20517;-59
2023/08/08 07:21:44;;;;;;;14.68;4.43;;;;;;;;;;5068724;28;20127;-59
2023/08/08 07:24:10;;;;;;;13.27;4.85;;;;;;;;;;5070539;28;20044;-59
2023/08/08 07:26:35;;;;;;;8.57;4.87;;;;;;;;;;5069059;28;20542;-59
2023/08/08 07:29:00;;;;;;;9.50;4.67;;;;;;;;;;5069796;28;20021;-59
2023/08/08 07:31:25;;;;;;;8.32;5.72;;;;;;;;;;5068780;28;20037;-59
2023/08/08 07:33:51;;;;;;;11.67;5.73;;;;;;;;;;5070595;28;20023;-59
2023/08/08 07:36:16;;;;;;;6.72;4.95;;;;;;;;;;5068151;28;20494;-59
2023/08/08 07:38:41;;;;;;;11.93;4.77;;;;;;;;;;5069868;28;20103;-59
2023/08/08 07:41:06;;;;;;;15.05;6.78;;;;;;;;;;5068915;28;20457;-59
2023/08/08 07:43:31;;;;;;;30.33;7.93;;;;;;;;;;5069453;28;20028;-59
2023/08/08 07:45:56;;;;;;;10.23;5.93;;;;;;;;;;5067942;28;20032;-59
2023/08/08 07:48:22;;;;;;;10.32;5.55;;;;;;;;;;5070097;28;20427;-59
2023/08/08 07:50:47;;;;;;;8.57;5.13;;;;;;;;;;5068216;28;20052;-59
2023/08/08 07:53:12;;;;;;;6.60;2.77;;;;;;;;;;5069709;28;20032;-58
2023/08/08 07:55:37;;;;;;;10.60;3.17;;;;;;;;;;5069848;28;20030;-59
2023/08/08 07:58:02;;;;;;;9.65;2.63;;;;;;;;;;5067793;28;20798;-58
2023/08/08 08:00:27;;;;;;;12.67;3.47;;;;;;;;;;5069837;28;20028;-59
2023/08/08 08:02:53;;;;;;;15.33;3.40;;;;;;;;;;5068737;28;20472;-58
2023/08/08 08:05:18;;;;;;;11.80;3.23;;;;;;;;;;5069154;28;20477;-58
2023/08/08 08:07:43;;;;;;;11.40;2.87;;;;;;;;;;5068722;28;20082;-59
2023/08/08 08:10:09;;;;;;;9.55;2.58;;;;;;;;;;5069724;28;20488;-58
2023/08/08 08:12:34;;;;;;;6.38;3.28;;;;;;;;;;5067862;28;20033;-58
2023/08/08 08:15:00;;;;;;;3.30;1.98;;;;;;;;;;5069563;28;20031;-58
2023/08/08 08:17:27;;;;;;;9.38;3.20;;;;;;;;;;5068236;28;20480;-59
2023/08/08 08:19:52;;;;;;;4.05;2.40;;;;;;;;;;5068812;28;20136;-59
2023/08/08 08:22:18;;;;;;;2.73;2.40;;;;;;;;;;5068092;28;20478;-58
2023/08/08 08:24:43;;;;;;;20.02;4.28;;;;;;;;;;5070232;28;20850;-58
2023/08/08 08:27:08;;;;;;;5.53;2.88;;;;;;;;;;5065989;28;20047;-58
2023/08/08 08:29:33;;;;;;;9.27;2.58;;;;;;;;;;5068084;28;20021;-59
2023/08/08 08:31:58;;;;;;;6.45;3.28;;;;;;;;;;5067624;28;20119;-58
2023/08/08 08:34:24;;;;;;;2.37;1.90;;;;;;;;;;5068617;28;20522;-58
2023/08/08 08:36:49;;;;;;;7.90;2.80;;;;;;;;;;5068170;28;20032;-58
2023/08/08 08:39:14;;;;;;;9.23;2.40;;;;;;;;;;5068564;28;20017;-58
2023/08/08 08:41:39;;;;;;;3.83;1.90;;;;;;;;;;5065309;28;20078;-59
2023/08/08 08:44:05;;;;;;;13.77;2.88;;;;;;;;;;5068497;28;20024;-58
2023/08/08 08:46:32;;;;;;;4.85;2.70;;;;;;;;;;5064247;28;20527;-61
2023/08/08 08:48:58;;;;;;;7.07;3.30;;;;;;;;;;5069546;28;20013;-58
2023/08/08 08:51:23;;;;;;;2.47;1.65;;;;;;;;;;5067782;28;20043;-59
2023/08/08 08:53:48;;;;;;;3.78;1.92;;;;;;;;;;5069166;28;20324;-59
2023/08/08 08:56:14;;;;;;;8.63;2.45;;;;;;;;;;5066862;28;20036;-59
2023/08/08 08:58:40;;;;;;;4.00;1.60;;;;;;;;;;5068558;28;20094;-59
2023/08/08 09:01:05;;;;;;;5.07;1.80;;;;;;;;;;5067555;28;20036;-59
2023/08/08 09:03:30;;;;;;;5.95;2.03;;;;;;;;;;5056577;28;20024;-60
2023/08/08 09:05:56;;;;;;;4.47;2.67;;;;;;;;;;5063704;28;20032;-60
2023/08/08 09:08:21;;;;;;;6.40;2.30;;;;;;;;;;5068886;28;20043;-59
2023/08/08 09:10:47;;;;;;;5.60;1.85;;;;;;;;;;5070389;28;20074;-60
2023/08/08 09:13:12;;;;;;;5.53;1.70;;;;;;;;;;5072500;28;20016;-61
2023/08/08 09:15:37;;;;;;;2.40;1.80;;;;;;;;;;5071931;28;20024;-60
2023/08/08 09:18:02;;;;;;;3.77;1.40;;;;;;;;;;5068351;28;20474;-59
2023/08/08 09:20:28;;;;;;;5.93;2.38;;;;;;;;;;5071998;28;20566;-60
2023/08/08 09:22:53;;;;;;;5.72;1.52;;;;;;;;;;5070595;28;20672;-60
2023/08/08 09:25:18;;;;;;;2.90;1.52;;;;;;;;;;5070786;28;20105;-60
2023/08/08 09:27:44;;;;;;;1.87;1.30;;;;;;;;;;5070269;28;20200;-60
2023/08/08 09:30:10;;;;;;;1.27;1.17;;;;;;;;;;5071890;28;20526;-60
2023/08/08 09:32:35;;;;;;;3.67;1.23;;;;;;;;;;5069892;28;20402;-60
2023/08/08 09:35:00;;;;;;;6.47;2.40;;;;;;;;;;5065900;28;20107;-61
2023/08/08 09:37:27;;;;;;;2.50;1.40;;;;;;;;;;5070680;28;20036;-62
2023/08/08 09:39:56;;;;;;;1.73;1.45;;;;;;;;;;5071598;28;20029;-61
2023/08/08 09:42:21;;;;;;;10.55;2.65;;;;;;;;;;5069676;28;20032;-59
2023/08/08 09:44:46;;;;;;;6.18;1.88;;;;;;;;;;5071880;28;20093;-60
2023/08/08 09:47:14;;;;;;;2.60;1.60;;;;;;;;;;5068023;28;20040;-60
2023/08/08 09:49:40;;;;;;;2.03;1.20;;;;;;;;;;5063584;28;20090;-60
2023/08/08 09:52:05;;;;;;;2.10;1.58;;;;;;;;;;5062242;28;20025;-60
2023/08/08 09:54:31;;;;;;;1.95;1.63;;;;;;;;;;5070408;28;20100;-60
2023/08/08 09:56:57;;;;;;;3.13;1.35;;;;;;;;;;5070193;28;20373;-60
2023/08/08 09:59:22;;;;;;;4.18;1.90;;;;;;;;;;5071714;28;20034;-60
2023/08/08 10:01:47;;;;;;;1.65;1.45;;;;;;;;;;5068837;28;20037;-60
2023/08/08 10:04:13;;;;;;;1.60;1.33;;;;;;;;;;5070465;28;20024;-60
2023/08/08 10:06:38;;;;;;;6.82;2.08;;;;;;;;;;5070685;28;20036;-60
2023/08/08 10:09:03;;;;;;;2.03;1.33;;;;;;;;;;5071662;28;20016;-60
2023/08/08 10:11:30;;;;;;;4.40;1.38;;;;;;;;;;5069316;28;20077;-60
2023/08/08 10:13:55;;;;;;;8.00;1.38;;;;;;;;;;5064045;28;20031;-60
2023/08/08 10:16:21;;;;;;;3.55;2.17;;;;;;;;;;5069866;28;20040;-60
2023/08/08 10:18:54;;;;;;;2.13;1.38;;;;;;;;;;5070927;28;20097;-61
2023/08/08 10:21:20;;;;;;;4.47;2.25;;;;;;;;;;5068988;28;20086;-60
2023/08/08 10:23:46;;;;;;;2.38;1.50;;;;;;;;;;5070669;28;20082;-60
2023/08/08 10:26:18;;;;;;;4.10;1.33;;;;;;;;;;5069179;28;20041;-60
2023/08/08 10:28:52;;;;;;;1.92;1.05;;;;;;;;;;5072420;28;20407;-63
2023/08/08 10:31:19;;;;;;;8.32;1.75;;;;;;;;;;5070142;28;20033;-60
2023/08/08 10:33:45;;;;;;;2.00;1.23;;;;;;;;;;5071468;28;20512;-60
2023/08/08 10:36:10;;;;;;;3.35;1.10;;;;;;;;;;5070307;28;20024;-60
2023/08/08 10:38:39;;;;;;;1.10;1.00;;;;;;;;;;5070733;28;20025;-60
2023/08/08 10:41:04;;;;;;;1.88;1.13;;;;;;;;;;5069496;28;20607;-60
2023/08/08 10:43:30;;;;;;;1.52;1.00;;;;;;;;;;5069833;28;20028;-60
2023/08/08 10:46:00;;;;;;;2.95;1.60;;;;;;;;;;5069070;28;20059;-60
2023/08/08 10:48:26;;;;;;;1.38;1.20;;;;;;;;;;5069940;28;20296;-60
2023/08/08 10:50:54;;;;;;;1.30;1.08;;;;;;;;;;5068724;28;20507;-62
2023/08/08 10:53:22;;;;;;;1.40;1.27;;;;;;;;;;5069901;28;20021;-60
2023/08/08 10:55:49;;;;;;;4.53;0.90;;;;;;;;;;5068241;28;20048;-60
2023/08/08 10:58:15;;;;;;;2.67;1.10;;;;;;;;;;5070565;28;20082;-60
2023/08/08 11:00:41;;;;;;;1.60;1.00;;;;;;;;;;5071335;28;20530;-60
2023/08/08 11:03:06;;;;;;;8.32;2.08;;;;;;;;;;5069311;28;20041;-60
2023/08/08 11:05:32;;;;;;;3.65;0.98;;;;;;;;;;5070986;28;20030;-60
2023/08/08 11:07:58;;;;;;;2.20;1.40;;;;;;;;;;5069855;28;20081;-60
2023/08/08 11:10:24;;;;;;;1.58;1.23;;;;;;;;;;5070611;28;20364;-60
2023/08/08 11:13:00;;;;;;;1.63;1.23;;;;;;;;;;5069519;28;20036;-60
2023/08/08 11:15:26;;;;;;;4.32;1.42;;;;;;;;;;5071011;28;20078;-60
2023/08/08 11:17:52;;;;;;;2.03;1.48;;;;;;;;;;5069280;28;20037;-60
2023/08/08 11:20:17;;;;;;;3.85;1.02;;;;;;;;;;5070513;28;20507;-61
2023/08/08 11:22:43;;;;;;;1.05;0.90;;;;;;;;;;5069122;28;20097;-61
2023/08/08 11:25:08;;;;;;;1.00;0.90;;;;;;;;;;5070378;28;20013;-60
2023/08/08 11:27:33;;;;;;;3.33;1.77;;;;;;;;;;5069006;28;20036;-60
2023/08/08 11:29:58;;;;;;;2.17;1.47;;;;;;;;;;5070955;28;20021;-60
2023/08/08 11:32:25;;;;;;;25.95;2.05;;;;;;;;;;5068579;28;20430;-60
2023/08/08 11:34:50;;;;;;;0.88;0.88;;;;;;;;;;5071291;28;20142;-60
2023/08/08 11:37:15;;;;;;;4.70;1.20;;;;;;;;;;5069282;28;20123;-60
2023/08/08 11:39:41;;;;;;;3.03;1.50;;;;;;;;;;5070383;28;20032;-60
2023/08/08 11:42:06;;;;;;;5.38;1.02;;;;;;;;;;5068752;28;20506;-60
2023/08/08 11:44:32;;;;;;;1.50;1.10;;;;;;;;;;5070379;28;20020;-60
2023/08/08 11:46:59;;;;;;;1.80;1.52;;;;;;;;;;5068995;28;20565;-60
2023/08/08 11:49:24;;;;;;;2.47;1.52;;;;;;;;;;5070581;28;20099;-60
2023/08/08 11:51:49;;;;;;;1.98;1.10;;;;;;;;;;5069446;28;20506;-60
2023/08/08 11:54:15;;;;;;;2.70;1.30;;;;;;;;;;5070156;28;20032;-60
2023/08/08 11:56:41;;;;;;;1.73;1.40;;;;;;;;;;5069485;28;20039;-60
2023/08/08 11:59:07;;;;;;;1.58;1.00;;;;;;;;;;5070544;28;20438;-61
2023/08/08 12:01:33;;;;;;;3.78;0.90;;;;;;;;;;5068003;28;20229;-60
2023/08/08 12:03:58;;;;;;;2.00;1.05;;;;;;;;;;5070650;28;20017;-61
2023/08/08 12:06:28;;;;;;;1.13;1.13;;;;;;;;;;5069027;28;20119;-60
2023/08/08 12:08:53;;;;;;;1.40;1.20;;;;;;;;;;5070367;28;20077;-60
2023/08/08 12:11:19;;;;;;;1.88;1.00;;;;;;;;;;5068883;28;20040;-60
2023/08/08 12:13:44;;;;;;;1.77;1.38;;;;;;;;;;5070073;28;20029;-60
2023/08/08 12:16:10;;;;;;;3.90;1.02;;;;;;;;;;5068353;28;20064;-60
2023/08/08 12:18:37;;;;;;;1.35;1.00;;;;;;;;;;5070480;28;20143;-60
2023/08/08 12:21:02;;;;;;;4.07;0.83;;;;;;;;;;5069041;28;20040;-61
2023/08/08 12:23:28;;;;;;;2.28;1.13;;;;;;;;;;5069184;28;20028;-60
2023/08/08 12:25:53;;;;;;;4.72;1.55;;;;;;;;;;5069150;28;20051;-60
2023/08/08 12:28:19;;;;;;;1.75;0.85;;;;;;;;;;5070234;28;20028;-60
2023/08/08 12:30:44;;;;;;;1.52;1.27;;;;;;;;;;5068338;28;20016;-60
2023/08/08 12:33:09;;;;;;;1.83;1.20;;;;;;;;;;5070064;28;20519;-60
2023/08/08 12:35:34;;;;;;;3.60;1.10;;;;;;;;;;5070430;28;20025;-60
2023/08/08 12:37:59;;;;;;;1.55;1.38;;;;;;;;;;5067525;28;20067;-60
2023/08/08 12:40:25;;;;;;;11.48;1.52;;;;;;;;;;5069579;28;20095;-60
2023/08/08 12:42:50;;;;;;;1.50;1.25;;;;;;;;;;5068439;28;20047;-60
2023/08/08 12:45:17;;;;;;;1.27;1.17;;;;;;;;;;5073117;28;20352;-60
2023/08/08 12:47:42;;;;;;;2.40;1.30;;;;;;;;;;5070587;28;20036;-60
2023/08/08 12:50:08;;;;;;;2.83;1.00;;;;;;;;;;5074094;28;20020;-60
2023/08/08 12:52:33;;;;;;;1.08;1.02;;;;;;;;;;5069276;28;20037;-61
2023/08/08 12:54:58;;;;;;;7.18;1.63;;;;;;;;;;5064547;28;20028;-60
2023/08/08 12:57:25;;;;;;;3.17;1.40;;;;;;;;;;5052100;28;20095;-61
2023/08/08 12:59:50;;;;;;;2.72;0.90;;;;;;;;;;5065181;28;20111;-61
2023/08/08 13:02:15;;;;;;;1.88;1.10;;;;;;;;;;5071734;28;20139;-60
2023/08/08 13:04:40;;;;;;;2.20;0.90;;;;;;;;;;5073857;28;20020;-61
2023/08/08 13:07:05;;;;;;;3.33;1.40;;;;;;;;;;5071978;28;20617;-61
2023/08/08 13:09:30;;;;;;;2.77;0.87;;;;;;;;;;5073095;28;20016;-61
2023/08/08 13:11:56;;;;;;;2.67;1.20;;;;;;;;;;5072103;28;20089;-61
2023/08/08 13:14:21;;;;;;;3.35;1.33;;;;;;;;;;5072947;28;20048;-61
2023/08/08 13:16:46;;;;;;;1.15;1.00;;;;;;;;;;5071587;28;20135;-61
2023/08/08 13:19:11;;;;;;;4.17;1.37;;;;;;;;;;5073091;28;20094;-61
2023/08/08 13:21:37;;;;;;;1.13;0.90;;;;;;;;;;5071477;28;20477;-60
2023/08/08 13:24:02;;;;;;;5.43;1.08;;;;;;;;;;5072492;28;20485;-61
2023/08/08 13:26:27;;;;;;;4.65;1.77;;;;;;;;;;5071693;28;20028;-61
2023/08/08 13:28:52;;;;;;;5.57;1.17;;;;;;;;;;5073101;28;20020;-61
2023/08/08 13:31:18;;;;;;;4.95;0.95;;;;;;;;;;5070978;28;20439;-61
2023/08/08 13:33:43;;;;;;;4.20;1.50;;;;;;;;;;5073082;28;20016;-60
2023/08/08 13:36:09;;;;;;;1.45;1.02;;;;;;;;;;5070795;28;20078;-60
2023/08/08 13:38:35;;;;;;;0.95;0.82;;;;;;;;;;5072336;28;20020;-61
2023/08/08 13:41:00;;;;;;;3.88;1.58;;;;;;;;;;5070176;28;20582;-61
2023/08/08 13:43:25;;;;;;;2.67;1.90;;;;;;;;;;5072763;28;20047;-63
2023/08/08 13:45:51;;;;;;;2.78;1.00;;;;;;;;;;5071267;28;20028;-60
2023/08/08 13:48:16;;;;;;;2.67;1.10;;;;;;;;;;5072432;28;20063;-61
2023/08/08 13:50:41;;;;;;;1.20;1.10;;;;;;;;;;5072752;28;20519;-61
2023/08/08 13:53:06;;;;;;;1.90;1.50;;;;;;;;;;5070050;28;20049;-61
2023/08/08 13:55:38;;;;;;;2.20;1.13;;;;;;;;;;5070960;28;20531;-61
2023/08/08 13:58:04;;;;;;;14.25;3.20;;;;;;;;;;5054444;28;20071;-61
2023/08/08 14:00:29;;;;;;;4.32;1.67;;;;;;;;;;5072186;28;20107;-60
2023/08/08 14:02:54;;;;;;;2.72;1.23;;;;;;;;;;5071136;28;20028;-61
2023/08/08 14:05:19;;;;;;;4.80;1.00;;;;;;;;;;5072488;28;20054;-61
2023/08/08 14:07:44;;;;;;;2.20;0.93;;;;;;;;;;5070737;28;20036;-61
2023/08/08 14:10:09;;;;;;;1.70;1.00;;;;;;;;;;5071745;28;20067;-61
2023/08/08 14:12:34;;;;;;;2.03;1.10;;;;;;;;;;5071190;28;20626;-61
2023/08/08 14:15:00;;;;;;;1.42;1.20;;;;;;;;;;5072131;28;20024;-61
2023/08/08 14:17:25;;;;;;;2.87;1.20;;;;;;;;;;5069542;28;20519;-61
2023/08/08 14:19:50;;;;;;;3.65;1.30;;;;;;;;;;5071574;28;20459;-61
2023/08/08 14:22:15;;;;;;;5.30;1.30;;;;;;;;;;5070216;28;20079;-61
2023/08/08 14:24:41;;;;;;;1.30;1.10;;;;;;;;;;5071963;28;20009;-60